Etusivu
METAR-TAF:

METAR-TAF

Lentoasemat :

Chehalis, Washington, Yhdysvallat

Leveyspiiri: 46-40-37N, Pituuspiiri: 122-58-58W, korkeus merenpinnasta: 54 m

Tämänhetkinen sää

Tämä raportti tehtiin 10 minuuttia sitten, kello 16.15 UTC
Tuuli 4 kn etelästä/lounaasta
Lämpötila 12°C
Kosteus 100%
Ilmanpaine 1008 hPa
Näkyvyys: 4.0 km
Muutamia pilviä 1000 ft:n korkeudessa
Hajanaisia pilviä 1700 ft:n korkeudessa
heikkoa tihkusadetta

METAR: KCLS 191615Z AUTO 20004KT 2 1/2SM -DZ FEW010 SCT017 12/12 A2976 RMK AO2

Aika: 09:25 (16:25 UTC)


TAF: puuttuu

Säähavainnot ja -ennusteet yli 4000 lentoasemalta (METAR- ja TAF-raportit).

Käytössä olevat sääasemat on merkitty karttaan keltaisilla ja punaisilla pisteillä.

Aseta hiiri pisteen päälle nähdäksesi sääaseman nimen.

Klikkaa sitten nähdäksesi säähavainnot ja -ennusteet.

Kartan vaihtaminen: klikkaa mustalla rastilla varustettuja vihreitä pisteitä, niin voit zoomata sisään; viivalla varustettua vihreää pistettä, niin voit zoomata ulos tai vihreitä nuolia, niin pääset viereisille kartoille.


METAR-TAF: